sensor_id;sensor_type;location;lat;lon;timestamp;pressure;altitude;pressure_sealevel;temperature;humidity
1401;BME280;46518;48.842;8.926;2023-01-28T04:27:41;97754.78;;;1.89;84.78
1401;BME280;46518;48.842;8.926;2023-01-28T04:30:16;97754.78;;;1.89;84.80
1401;BME280;46518;48.842;8.926;2023-01-28T04:33:03;97759.16;;;1.88;85.00
1401;BME280;46518;48.842;8.926;2023-01-28T04:35:40;97761.25;;;1.93;85.02
1401;BME280;46518;48.842;8.926;2023-01-28T04:38:31;97765.97;;;1.89;84.48
1401;BME280;46518;48.842;8.926;2023-01-28T04:41:28;97764.81;;;1.92;85.36
1401;BME280;46518;48.842;8.926;2023-01-28T04:44:08;97770.25;;;1.82;85.23
1401;BME280;46518;48.842;8.926;2023-01-28T04:47:02;97770.00;;;1.92;85.84
1401;BME280;46518;48.842;8.926;2023-01-28T04:49:53;97768.41;;;1.91;85.49
1401;BME280;46518;48.842;8.926;2023-01-28T04:52:36;97768.13;;;1.86;86.14
1401;BME280;46518;48.842;8.926;2023-01-28T04:55:15;97772.16;;;1.88;86.64
1401;BME280;46518;48.842;8.926;2023-01-28T04:57:45;97769.72;;;1.87;85.89
1401;BME280;46518;48.842;8.926;2023-01-28T05:00:16;97767.47;;;1.84;86.70
1401;BME280;46518;48.842;8.926;2023-01-28T05:02:44;97768.47;;;1.83;86.53
1401;BME280;46518;48.842;8.926;2023-01-28T05:05:13;97774.91;;;1.87;86.60
1401;BME280;46518;48.842;8.926;2023-01-28T05:07:55;97779.28;;;1.86;86.80
1401;BME280;46518;48.842;8.926;2023-01-28T05:10:24;97778.50;;;1.86;87.04
1401;BME280;46518;48.842;8.926;2023-01-28T05:12:53;97782.53;;;1.88;87.06
1401;BME280;46518;48.842;8.926;2023-01-28T05:15:23;97780.28;;;1.85;87.13
1401;BME280;46518;48.842;8.926;2023-01-28T05:17:53;97779.78;;;1.90;87.03
1401;BME280;46518;48.842;8.926;2023-01-28T05:21:01;97784.84;;;1.83;87.18
1401;BME280;46518;48.842;8.926;2023-01-28T05:23:31;97782.69;;;1.87;87.13
1401;BME280;46518;48.842;8.926;2023-01-28T05:26:00;97784.38;;;1.80;87.62
1401;BME280;46518;48.842;8.926;2023-01-28T05:28:28;97784.38;;;1.80;87.21
1401;BME280;46518;48.842;8.926;2023-01-28T05:31:01;97784.19;;;1.81;87.58
1401;BME280;46518;48.842;8.926;2023-01-28T05:33:29;97788.25;;;1.84;87.29
1401;BME280;46518;48.842;8.926;2023-01-28T05:35:58;97790.19;;;1.82;87.86
1401;BME280;46518;48.842;8.926;2023-01-28T05:38:27;97786.34;;;1.78;87.79
1401;BME280;46518;48.842;8.926;2023-01-28T05:40:55;97790.19;;;1.82;87.72
1401;BME280;46518;48.842;8.926;2023-01-28T05:43:23;97788.53;;;1.89;88.00
1401;BME280;46518;48.842;8.926;2023-01-28T05:46:06;97791.47;;;1.86;87.83
1401;BME280;46518;48.842;8.926;2023-01-28T05:48:55;97796.03;;;1.84;88.01
1401;BME280;46518;48.842;8.926;2023-01-28T05:51:50;97792.34;;;1.78;87.63
1401;BME280;46518;48.842;8.926;2023-01-28T05:54:20;97795.38;;;1.82;87.68
1401;BME280;46518;48.842;8.926;2023-01-28T05:56:48;97793.78;;;1.81;87.66
1401;BME280;46518;48.842;8.926;2023-01-28T05:59:16;97801.91;;;1.78;88.61
1401;BME280;46518;48.842;8.926;2023-01-28T06:01:48;97794.75;;;1.80;88.52
1401;BME280;46518;48.842;8.926;2023-01-28T06:04:16;97801.50;;;1.89;87.74
1401;BME280;46518;48.842;8.926;2023-01-28T06:06:45;97802.84;;;1.85;88.71
1401;BME280;46518;48.842;8.926;2023-01-28T06:09:14;97807.50;;;1.89;87.51
1401;BME280;46518;48.842;8.926;2023-01-28T06:11:42;97808.94;;;1.92;87.94
1401;BME280;46518;48.842;8.926;2023-01-28T06:14:20;97809.88;;;1.99;87.99
1401;BME280;46518;48.842;8.926;2023-01-28T06:17:10;97820.88;;;2.01;87.29
1401;BME280;46518;48.842;8.926;2023-01-28T06:20:00;97825.44;;;1.99;87.02
1401;BME280;46518;48.842;8.926;2023-01-28T06:22:30;97831.63;;;1.98;87.30
1401;BME280;46518;48.842;8.926;2023-01-28T06:24:59;97830.81;;;1.98;87.32
1401;BME280;46518;48.842;8.926;2023-01-28T06:27:27;97834.03;;;2.00;87.58
1401;BME280;46518;48.842;8.926;2023-01-28T06:29:55;97831.91;;;2.03;87.85
1401;BME280;46518;48.842;8.926;2023-01-28T06:32:25;97833.22;;;1.99;87.04
1401;BME280;46518;48.842;8.926;2023-01-28T06:34:53;97832.44;;;1.99;87.68
1401;BME280;46518;48.842;8.926;2023-01-28T06:37:23;97834.03;;;2.00;87.16
1401;BME280;46518;48.842;8.926;2023-01-28T06:39:52;97848.66;;;2.01;87.79
1401;BME280;46518;48.842;8.926;2023-01-28T06:42:20;97850.75;;;1.97;87.42
1401;BME280;46518;48.842;8.926;2023-01-28T06:44:48;97851.25;;;2.01;87.71
1401;BME280;46518;48.842;8.926;2023-01-28T06:47:16;97858.97;;;2.09;87.12
1401;BME280;46518;48.842;8.926;2023-01-28T06:49:45;97858.69;;;2.04;87.15
1401;BME280;46518;48.842;8.926;2023-01-28T06:52:13;97853.03;;;2.00;86.87
1401;BME280;46518;48.842;8.926;2023-01-28T06:54:42;97854.81;;;2.00;86.77
1401;BME280;46518;48.842;8.926;2023-01-28T06:57:10;97855.16;;;1.97;87.31
1401;BME280;46518;48.842;8.926;2023-01-28T06:59:38;97851.13;;;1.94;88.12
1401;BME280;46518;48.842;8.926;2023-01-28T07:02:08;97846.13;;;1.84;87.24
1401;BME280;46518;48.842;8.926;2023-01-28T07:04:37;97860.06;;;1.91;87.88
1401;BME280;46518;48.842;8.926;2023-01-28T07:07:06;97861.28;;;2.04;88.21
1401;BME280;46518;48.842;8.926;2023-01-28T07:09:34;97863.72;;;2.05;87.64
1401;BME280;46518;48.842;8.926;2023-01-28T07:12:03;97868.63;;;2.00;87.31
1401;BME280;46518;48.842;8.926;2023-01-28T07:14:31;97866.91;;;1.84;87.67
1401;BME280;46518;48.842;8.926;2023-01-28T07:16:59;97867.38;;;1.88;87.96
1401;BME280;46518;48.842;8.926;2023-01-28T07:19:27;97867.19;;;1.89;87.87
1401;BME280;46518;48.842;8.926;2023-01-28T07:21:56;97884.56;;;1.89;87.94
1401;BME280;46518;48.842;8.926;2023-01-28T07:24:28;97880.66;;;1.93;88.44
1401;BME280;46518;48.842;8.926;2023-01-28T07:26:56;97890.34;;;1.99;87.97
1401;BME280;46518;48.842;8.926;2023-01-28T07:29:30;97881.59;;;2.00;88.76
1401;BME280;46518;48.842;8.926;2023-01-28T07:31:58;97880.59;;;2.01;87.87
1401;BME280;46518;48.842;8.926;2023-01-28T07:34:26;97874.59;;;2.01;88.53
1401;BME280;46518;48.842;8.926;2023-01-28T07:36:54;97890.63;;;2.04;88.69
1401;BME280;46518;48.842;8.926;2023-01-28T07:39:23;97888.69;;;2.06;88.39
1401;BME280;46518;48.842;8.926;2023-01-28T07:41:52;97886.44;;;2.03;88.43
1401;BME280;46518;48.842;8.926;2023-01-28T07:44:34;97877.16;;;2.09;88.45
1401;BME280;46518;48.842;8.926;2023-01-28T07:47:04;97889.78;;;2.12;88.90
1401;BME280;46518;48.842;8.926;2023-01-28T07:49:32;97888.97;;;2.11;88.83
1401;BME280;46518;48.842;8.926;2023-01-28T07:52:01;97892.72;;;2.09;88.46
1401;BME280;46518;48.842;8.926;2023-01-28T07:54:29;97898.56;;;2.11;88.80
1401;BME280;46518;48.842;8.926;2023-01-28T07:56:58;97905.41;;;2.04;88.99
1401;BME280;46518;48.842;8.926;2023-01-28T07:59:26;97910.16;;;2.00;89.09
1401;BME280;46518;48.842;8.926;2023-01-28T08:01:54;97911.09;;;2.07;89.77
1401;BME280;46518;48.842;8.926;2023-01-28T08:04:22;97907.63;;;2.15;88.88
1401;BME280;46518;48.842;8.926;2023-01-28T08:06:50;97905.53;;;2.10;89.56
1401;BME280;46518;48.842;8.926;2023-01-28T08:09:18;97914.28;;;2.18;89.08
1401;BME280;46518;48.842;8.926;2023-01-28T08:11:46;97915.53;;;2.22;89.06
1401;BME280;46518;48.842;8.926;2023-01-28T08:14:16;97908.56;;;2.22;89.73
1401;BME280;46518;48.842;8.926;2023-01-28T08:16:44;97917.81;;;2.16;89.63
1401;BME280;46518;48.842;8.926;2023-01-28T08:19:12;97919.47;;;2.18;89.90
1401;BME280;46518;48.842;8.926;2023-01-28T08:21:40;97914.28;;;2.18;90.45
1401;BME280;46518;48.842;8.926;2023-01-28T08:24:08;97914.44;;;2.16;89.28
1401;BME280;46518;48.842;8.926;2023-01-28T08:26:36;97915.38;;;2.23;90.17
1401;BME280;46518;48.842;8.926;2023-01-28T08:29:13;97919.69;;;2.31;89.39
1401;BME280;46518;48.842;8.926;2023-01-28T08:31:42;97924.88;;;2.31;89.59
1401;BME280;46518;48.842;8.926;2023-01-28T08:34:11;97921.31;;;2.32;89.47
1401;BME280;46518;48.842;8.926;2023-01-28T08:36:39;97927.19;;;2.26;89.39
1401;BME280;46518;48.842;8.926;2023-01-28T08:39:06;97914.06;;;2.27;89.96
1401;BME280;46518;48.842;8.926;2023-01-28T08:41:34;97917.09;;;2.31;89.66
1401;BME280;46518;48.842;8.926;2023-01-28T08:44:03;97919.00;;;2.37;89.81
1401;BME280;46518;48.842;8.926;2023-01-28T08:46:31;97919.00;;;2.37;89.28
1401;BME280;46518;48.842;8.926;2023-01-28T08:49:00;97913.28;;;2.42;89.60
1401;BME280;46518;48.842;8.926;2023-01-28T08:51:28;97914.63;;;2.37;90.01
1401;BME280;46518;48.842;8.926;2023-01-28T08:53:56;97916.22;;;2.38;89.36
1401;BME280;46518;48.842;8.926;2023-01-28T08:56:24;97919.13;;;2.44;89.82
1401;BME280;46518;48.842;8.926;2023-01-28T08:58:52;97925.75;;;2.46;90.13
1401;BME280;46518;48.842;8.926;2023-01-28T09:01:20;97920.50;;;2.54;89.90
1401;BME280;46518;48.842;8.926;2023-01-28T09:03:49;97916.13;;;2.55;89.55
1401;BME280;46518;48.842;8.926;2023-01-28T09:06:18;97932.03;;;2.52;89.57
1401;BME280;46518;48.842;8.926;2023-01-28T09:08:46;97930.44;;;2.51;89.79
1401;BME280;46518;48.842;8.926;2023-01-28T09:11:15;97932.00;;;2.60;89.76
1401;BME280;46518;48.842;8.926;2023-01-28T09:13:43;97934.63;;;2.52;89.93
1401;BME280;46518;48.842;8.926;2023-01-28T09:16:11;97938.69;;;2.54;89.84
1401;BME280;46518;48.842;8.926;2023-01-28T09:18:39;97938.53;;;2.56;89.20
1401;BME280;46518;48.842;8.926;2023-01-28T09:21:08;97950.53;;;2.57;89.52
1401;BME280;46518;48.842;8.926;2023-01-28T09:23:37;97950.66;;;2.64;89.71
1401;BME280;46518;48.842;8.926;2023-01-28T09:26:06;97950.84;;;2.62;89.40
1401;BME280;46518;48.842;8.926;2023-01-28T09:28:34;97951.41;;;2.72;89.59
1401;BME280;46518;48.842;8.926;2023-01-28T09:31:05;97955.50;;;2.67;88.85
1401;BME280;46518;48.842;8.926;2023-01-28T09:33:35;97952.59;;;2.62;89.00
1401;BME280;46518;48.842;8.926;2023-01-28T09:36:05;97961.84;;;2.64;89.04
1401;BME280;46518;48.842;8.926;2023-01-28T09:38:33;97962.03;;;2.63;89.71
1401;BME280;46518;48.842;8.926;2023-01-28T09:41:23;97961.69;;;2.66;88.83
1401;BME280;46518;48.842;8.926;2023-01-28T09:44:05;97964.28;;;2.66;89.03
1401;BME280;46518;48.842;8.926;2023-01-28T09:46:38;97961.03;;;2.64;89.12
1401;BME280;46518;48.842;8.926;2023-01-28T09:49:16;97973.00;;;2.73;88.96
1401;BME280;46518;48.842;8.926;2023-01-28T09:51:51;97975.31;;;2.68;89.21
1401;BME280;46518;48.842;8.926;2023-01-28T09:54:26;97981.59;;;2.73;89.32
1401;BME280;46518;48.842;8.926;2023-01-28T09:57:03;97977.72;;;2.69;88.89
1401;BME280;46518;48.842;8.926;2023-01-28T09:59:36;97976.28;;;2.67;88.72
1401;BME280;46518;48.842;8.926;2023-01-28T10:02:34;97975.31;;;2.68;88.45
1401;BME280;46518;48.842;8.926;2023-01-28T10:05:16;97979.00;;;2.73;87.90
1401;BME280;46518;48.842;8.926;2023-01-28T10:07:54;97981.25;;;2.76;88.25
1401;BME280;46518;48.842;8.926;2023-01-28T10:10:26;97981.16;;;2.70;88.60
1401;BME280;46518;48.842;8.926;2023-01-28T10:13:21;97968.09;;;2.78;87.65
1401;BME280;46518;48.842;8.926;2023-01-28T10:15:58;97970.75;;;2.70;88.28
1401;BME280;46518;48.842;8.926;2023-01-28T10:18:34;97972.38;;;2.71;88.27
1401;BME280;46518;48.842;8.926;2023-01-28T10:21:11;97965.56;;;2.70;87.99
1401;BME280;46518;48.842;8.926;2023-01-28T10:23:54;97964.22;;;2.74;87.98
1401;BME280;46518;48.842;8.926;2023-01-28T10:26:28;97964.41;;;2.72;87.74
1401;BME280;46518;48.842;8.926;2023-01-28T10:29:03;97960.00;;;2.73;87.98
1401;BME280;46518;48.842;8.926;2023-01-28T10:31:37;97944.94;;;2.68;87.88
1401;BME280;46518;48.842;8.926;2023-01-28T10:34:11;97952.22;;;2.73;88.31
1401;BME280;46518;48.842;8.926;2023-01-28T10:36:42;97958.66;;;2.77;88.21
1401;BME280;46518;48.842;8.926;2023-01-28T10:39:14;97962.31;;;2.68;88.08
1401;BME280;46518;48.842;8.926;2023-01-28T10:41:50;97957.94;;;2.68;88.08
1401;BME280;46518;48.842;8.926;2023-01-28T10:44:30;97950.06;;;2.76;88.22
1401;BME280;46518;48.842;8.926;2023-01-28T10:47:06;97952.00;;;2.74;87.61
1401;BME280;46518;48.842;8.926;2023-01-28T10:49:40;97950.84;;;2.77;87.86
1401;BME280;46518;48.842;8.926;2023-01-28T10:52:12;97951.50;;;2.79;88.16
1401;BME280;46518;48.842;8.926;2023-01-28T10:54:42;97957.34;;;2.81;88.37
1401;BME280;46518;48.842;8.926;2023-01-28T10:57:12;97963.97;;;2.84;87.94
1401;BME280;46518;48.842;8.926;2023-01-28T10:59:45;97956.94;;;2.92;88.27
1401;BME280;46518;48.842;8.926;2023-01-28T11:02:25;97960.34;;;2.93;88.33
1401;BME280;46518;48.842;8.926;2023-01-28T11:05:01;97958.19;;;2.96;88.45
1401;BME280;46518;48.842;8.926;2023-01-28T11:07:31;97953.50;;;2.92;88.04
1401;BME280;46518;48.842;8.926;2023-01-28T11:10:00;97962.56;;;2.96;87.81
1401;BME280;46518;48.842;8.926;2023-01-28T11:12:29;97961.25;;;3.00;87.50
1401;BME280;46518;48.842;8.926;2023-01-28T11:15:01;97969.66;;;2.87;87.56
1401;BME280;46518;48.842;8.926;2023-01-28T11:17:34;97945.94;;;2.82;87.22
1401;BME280;46518;48.842;8.926;2023-01-28T11:20:16;97957.22;;;2.97;86.71
1401;BME280;46518;48.842;8.926;2023-01-28T11:22:47;97956.28;;;2.90;87.31
1401;BME280;46518;48.842;8.926;2023-01-28T11:25:18;97954.06;;;3.02;86.96
1401;BME280;46518;48.842;8.926;2023-01-28T11:27:52;97956.66;;;2.87;86.55
1401;BME280;46518;48.842;8.926;2023-01-28T11:30:24;97957.81;;;2.99;86.96
1401;BME280;46518;48.842;8.926;2023-01-28T11:32:55;97963.13;;;3.06;87.24
1401;BME280;46518;48.842;8.926;2023-01-28T11:35:28;97957.03;;;2.99;87.01
1401;BME280;46518;48.842;8.926;2023-01-28T11:37:59;97964.19;;;2.97;86.77
1401;BME280;46518;48.842;8.926;2023-01-28T11:40:28;97960.97;;;2.95;87.27
1401;BME280;46518;48.842;8.926;2023-01-28T11:42:57;97963.00;;;2.85;87.03
1401;BME280;46518;48.842;8.926;2023-01-28T11:45:36;97965.19;;;2.96;86.44
1401;BME280;46518;48.842;8.926;2023-01-28T11:48:18;97953.84;;;2.89;86.84
1401;BME280;46518;48.842;8.926;2023-01-28T11:50:57;97953.50;;;2.92;87.12
1401;BME280;46518;48.842;8.926;2023-01-28T11:53:47;97959.34;;;2.94;87.06
1401;BME280;46518;48.842;8.926;2023-01-28T11:56:44;97963.63;;;2.87;86.93
1401;BME280;46518;48.842;8.926;2023-01-28T11:59:33;97963.47;;;2.88;87.38
1401;BME280;46518;48.842;8.926;2023-01-28T12:02:17;97962.75;;;2.94;86.87
1401;BME280;46518;48.842;8.926;2023-01-28T12:05:03;97963.34;;;2.81;87.22
1401;BME280;46518;48.842;8.926;2023-01-28T12:07:40;97967.28;;;2.77;87.45
1401;BME280;46518;48.842;8.926;2023-01-28T12:10:18;97965.66;;;2.76;87.73
1401;BME280;46518;48.842;8.926;2023-01-28T12:13:02;97972.06;;;2.66;87.97
1401;BME280;46518;48.842;8.926;2023-01-28T12:15:49;97968.72;;;2.57;87.91
1401;BME280;46518;48.842;8.926;2023-01-28T12:18:39;97970.72;;;2.47;88.86
1401;BME280;46518;48.842;8.926;2023-01-28T12:21:23;97964.50;;;2.56;88.63
1401;BME280;46518;48.842;8.926;2023-01-28T12:24:05;97956.34;;;2.36;89.30
1401;BME280;46518;48.842;8.926;2023-01-28T12:26:43;97962.53;;;2.35;89.60
1401;BME280;46518;48.842;8.926;2023-01-28T12:29:24;97969.28;;;2.44;90.03
1401;BME280;46518;48.842;8.926;2023-01-28T12:32:15;97975.00;;;2.40;91.02
1401;BME280;46518;48.842;8.926;2023-01-28T12:35:25;97975.63;;;2.42;89.85
1401;BME280;46518;48.842;8.926;2023-01-28T12:38:06;97960.91;;;2.34;90.25
1401;BME280;46518;48.842;8.926;2023-01-28T12:40:59;97974.88;;;2.33;91.21
1401;BME280;46518;48.842;8.926;2023-01-28T12:43:50;97965.34;;;2.25;91.56
1401;BME280;46518;48.842;8.926;2023-01-28T12:46:34;97962.69;;;2.33;91.23
1401;BME280;46518;48.842;8.926;2023-01-28T12:49:12;97944.94;;;2.22;91.16
1401;BME280;46518;48.842;8.926;2023-01-28T12:51:53;97954.25;;;2.31;90.69
1401;BME280;46518;48.842;8.926;2023-01-28T12:54:28;97956.88;;;2.31;91.32
1401;BME280;46518;48.842;8.926;2023-01-28T12:57:00;97948.03;;;2.18;91.71
1401;BME280;46518;48.842;8.926;2023-01-28T12:59:33;97951.66;;;2.31;92.25
1401;BME280;46518;48.842;8.926;2023-01-28T13:02:18;97942.09;;;2.32;91.93
1401;BME280;46518;48.842;8.926;2023-01-28T13:04:55;97950.34;;;2.35;91.72
1401;BME280;46518;48.842;8.926;2023-01-28T13:07:32;97943.81;;;2.40;92.18
1401;BME280;46518;48.842;8.926;2023-01-28T13:10:05;97946.09;;;2.43;91.92
1401;BME280;46518;48.842;8.926;2023-01-28T13:12:39;97947.41;;;2.38;91.87
1401;BME280;46518;48.842;8.926;2023-01-28T13:15:11;97953.09;;;2.42;91.25
1401;BME280;46518;48.842;8.926;2023-01-28T13:17:53;97938.69;;;2.31;91.96
1401;BME280;46518;48.842;8.926;2023-01-28T13:20:33;97950.50;;;2.42;91.52
1401;BME280;46518;48.842;8.926;2023-01-28T13:23:21;97952.75;;;2.37;91.96
1401;BME280;46518;48.842;8.926;2023-01-28T13:25:52;97953.75;;;2.36;91.61
1401;BME280;46518;48.842;8.926;2023-01-28T13:28:27;97959.47;;;2.31;91.96
1401;BME280;46518;48.842;8.926;2023-01-28T13:31:01;97965.75;;;2.37;91.63
1401;BME280;46518;48.842;8.926;2023-01-28T13:33:33;97965.88;;;2.44;91.60
1401;BME280;46518;48.842;8.926;2023-01-28T13:36:17;97960.53;;;2.45;91.85
1401;BME280;46518;48.842;8.926;2023-01-28T13:39:01;97952.09;;;2.43;91.63
1401;BME280;46518;48.842;8.926;2023-01-28T13:41:39;97962.00;;;2.40;91.28
1401;BME280;46518;48.842;8.926;2023-01-28T13:44:20;97958.22;;;2.27;91.39
1401;BME280;46518;48.842;8.926;2023-01-28T13:47:10;97968.34;;;2.37;91.64
1401;BME280;46518;48.842;8.926;2023-01-28T13:49:44;97973.22;;;2.40;92.12
1401;BME280;46518;48.842;8.926;2023-01-28T13:52:19;97973.97;;;2.49;91.72
1401;BME280;46518;48.842;8.926;2023-01-28T13:54:54;97960.56;;;2.37;91.34
1401;BME280;46518;48.842;8.926;2023-01-28T14:03:56;97976.28;;;2.44;91.55
1401;BME280;46518;48.842;8.926;2023-01-28T14:12:46;97991.88;;;2.44;91.68
1401;BME280;46518;48.842;8.926;2023-01-28T14:15:42;97985.88;;;2.43;91.81
1401;BME280;46518;48.842;8.926;2023-01-28T14:18:24;97998.50;;;2.46;91.45
1401;BME280;46518;48.842;8.926;2023-01-28T14:20:55;97980.97;;;2.48;91.57
1401;BME280;46518;48.842;8.926;2023-01-28T14:23:26;97964.56;;;2.25;91.86
1401;BME280;46518;48.842;8.926;2023-01-28T14:26:15;98001.16;;;2.38;91.50
1401;BME280;46518;48.842;8.926;2023-01-28T14:28:55;98003.75;;;2.38;91.67
1401;BME280;46518;48.842;8.926;2023-01-28T14:31:30;98009.41;;;2.42;91.54
1401;BME280;46518;48.842;8.926;2023-01-28T14:34:05;98005.28;;;2.55;91.31
1401;BME280;46518;48.842;8.926;2023-01-28T14:36:37;98019.22;;;2.54;91.10
1401;BME280;46518;48.842;8.926;2023-01-28T14:39:16;98017.28;;;2.56;91.81
1401;BME280;46518;48.842;8.926;2023-01-28T14:41:47;98020.81;;;2.64;90.81
1401;BME280;46518;48.842;8.926;2023-01-28T14:44:29;98012.72;;;2.58;90.77
1401;BME280;46518;48.842;8.926;2023-01-28T14:47:24;98023.13;;;2.58;90.80
1401;BME280;46518;48.842;8.926;2023-01-28T14:50:04;98018.44;;;2.54;89.65
1401;BME280;46518;48.842;8.926;2023-01-28T14:52:52;98024.13;;;2.49;89.97
1401;BME280;46518;48.842;8.926;2023-01-28T14:55:31;98022.66;;;2.55;90.28
1401;BME280;46518;48.842;8.926;2023-01-28T14:58:03;98032.06;;;2.56;89.72
1401;BME280;46518;48.842;8.926;2023-01-28T15:00:34;98028.44;;;2.65;89.51
1401;BME280;46518;48.842;8.926;2023-01-28T15:03:09;98027.66;;;2.65;89.79
1401;BME280;46518;48.842;8.926;2023-01-28T15:06:02;98031.50;;;2.69;89.30
1401;BME280;46518;48.842;8.926;2023-01-28T15:08:30;98028.44;;;2.65;88.49
1401;BME280;46518;48.842;8.926;2023-01-28T15:11:00;98034.28;;;2.67;89.32
1401;BME280;46518;48.842;8.926;2023-01-28T15:13:32;98046.22;;;2.53;88.23
1401;BME280;46518;48.842;8.926;2023-01-28T15:16:04;98053.97;;;2.62;88.80
1401;BME280;46518;48.842;8.926;2023-01-28T15:18:35;98043.25;;;2.65;88.40
1401;BME280;46518;48.842;8.926;2023-01-28T15:21:07;98059.00;;;2.63;88.65
1401;BME280;46518;48.842;8.926;2023-01-28T15:23:37;98057.03;;;2.65;88.38
1401;BME280;46518;48.842;8.926;2023-01-28T15:26:07;98055.47;;;2.56;88.49
1401;BME280;46518;48.842;8.926;2023-01-28T15:28:38;98055.91;;;2.59;88.16
1401;BME280;46518;48.842;8.926;2023-01-28T15:31:19;98054.31;;;2.58;87.83
1401;BME280;46518;48.842;8.926;2023-01-28T15:33:55;98056.59;;;2.53;87.72
1401;BME280;46518;48.842;8.926;2023-01-28T15:36:23;98058.91;;;2.48;87.97
1401;BME280;46518;48.842;8.926;2023-01-28T15:38:52;98068.31;;;2.49;88.16
1401;BME280;46518;48.842;8.926;2023-01-28T15:41:23;98068.59;;;2.54;88.23
1401;BME280;46518;48.842;8.926;2023-01-28T15:43:52;98072.50;;;2.58;87.73
1401;BME280;46518;48.842;8.926;2023-01-28T15:46:21;98070.00;;;2.42;87.90
1401;BME280;46518;48.842;8.926;2023-01-28T15:48:55;98074.44;;;2.56;88.08
1401;BME280;46518;48.842;8.926;2023-01-28T15:51:26;98071.00;;;2.64;87.68
1401;BME280;46518;48.842;8.926;2023-01-28T15:53:59;98085.78;;;2.64;87.01
1401;BME280;46518;48.842;8.926;2023-01-28T15:56:29;98073.72;;;2.71;87.03
1401;BME280;46518;48.842;8.926;2023-01-28T15:59:08;98081.19;;;2.74;86.38
1401;BME280;46518;48.842;8.926;2023-01-28T16:01:39;98090.13;;;2.71;86.48
1401;BME280;46518;48.842;8.926;2023-01-28T16:04:21;98086.72;;;2.71;85.83
1401;BME280;46518;48.842;8.926;2023-01-28T16:06:51;98088.97;;;2.74;86.29
1401;BME280;46518;48.842;8.926;2023-01-28T16:09:23;98084.78;;;2.73;86.18
1401;BME280;46518;48.842;8.926;2023-01-28T16:12:00;98083.44;;;2.77;85.47
1401;BME280;46518;48.842;8.926;2023-01-28T16:14:32;98082.81;;;2.75;85.65
1401;BME280;46518;48.842;8.926;2023-01-28T16:17:03;98077.44;;;2.76;84.73
1401;BME280;46518;48.842;8.926;2023-01-28T16:19:36;98060.81;;;2.54;84.36
1401;BME280;46518;48.842;8.926;2023-01-28T16:22:05;98052.31;;;2.37;84.53
1401;BME280;46518;48.842;8.926;2023-01-28T16:24:47;98077.56;;;2.52;84.75
1401;BME280;46518;48.842;8.926;2023-01-28T16:27:20;98087.34;;;2.50;85.28
1401;BME280;46518;48.842;8.926;2023-01-28T16:29:49;98078.91;;;2.48;85.16
1401;BME280;46518;48.842;8.926;2023-01-28T16:32:29;98098.81;;;2.55;84.99
1401;BME280;46518;48.842;8.926;2023-01-28T16:34:58;98095.25;;;2.56;85.26
1401;BME280;46518;48.842;8.926;2023-01-28T16:37:27;98091.69;;;2.57;84.51
1401;BME280;46518;48.842;8.926;2023-01-28T16:39:55;98089.38;;;2.63;84.68
1401;BME280;46518;48.842;8.926;2023-01-28T16:42:27;98090.63;;;2.67;85.01
1401;BME280;46518;48.842;8.926;2023-01-28T16:44:56;98095.72;;;2.60;84.67
1401;BME280;46518;48.842;8.926;2023-01-28T16:47:24;98086.13;;;2.61;84.78
1401;BME280;46518;48.842;8.926;2023-01-28T16:49:53;98091.84;;;2.56;84.68
1401;BME280;46518;48.842;8.926;2023-01-28T16:52:21;98087.09;;;2.59;84.63
1401;BME280;46518;48.842;8.926;2023-01-28T16:54:50;98084.97;;;2.63;84.89
1401;BME280;46518;48.842;8.926;2023-01-28T16:57:19;98087.88;;;2.68;84.01
1401;BME280;46518;48.842;8.926;2023-01-28T16:59:48;98078.00;;;2.64;84.06
1401;BME280;46518;48.842;8.926;2023-01-28T17:02:17;98091.63;;;2.66;84.09
1401;BME280;46518;48.842;8.926;2023-01-28T17:04:45;98095.22;;;2.65;83.82
1401;BME280;46518;48.842;8.926;2023-01-28T17:07:14;98087.22;;;2.66;83.32
1401;BME280;46518;48.842;8.926;2023-01-28T17:09:42;98088.22;;;2.65;83.81
1401;BME280;46518;48.842;8.926;2023-01-28T17:12:10;98091.00;;;2.64;83.74
1401;BME280;46518;48.842;8.926;2023-01-28T17:14:38;98092.78;;;2.63;83.19
1401;BME280;46518;48.842;8.926;2023-01-28T17:17:06;98094.22;;;2.66;82.73
1401;BME280;46518;48.842;8.926;2023-01-28T17:19:34;98098.63;;;2.65;82.97
1401;BME280;46518;48.842;8.926;2023-01-28T17:22:03;98099.88;;;2.69;82.75
1401;BME280;46518;48.842;8.926;2023-01-28T17:24:32;98097.13;;;2.71;82.27
1401;BME280;46518;48.842;8.926;2023-01-28T17:27:00;98096.47;;;2.69;82.31
1401;BME280;46518;48.842;8.926;2023-01-28T17:29:28;98101.69;;;2.69;82.49
1401;BME280;46518;48.842;8.926;2023-01-28T17:31:56;98101.16;;;2.73;82.38
1401;BME280;46518;48.842;8.926;2023-01-28T17:34:25;98116.41;;;2.76;82.02
1401;BME280;46518;48.842;8.926;2023-01-28T17:36:53;98119.22;;;2.75;81.84
1401;BME280;46518;48.842;8.926;2023-01-28T17:39:21;98116.63;;;2.75;81.43
1401;BME280;46518;48.842;8.926;2023-01-28T17:41:50;98112.06;;;2.69;81.09
1401;BME280;46518;48.842;8.926;2023-01-28T17:44:18;98118.25;;;2.68;81.22
1401;BME280;46518;48.842;8.926;2023-01-28T17:46:46;98115.03;;;2.66;81.39
1401;BME280;46518;48.842;8.926;2023-01-28T17:49:15;98121.03;;;2.66;81.44
1401;BME280;46518;48.842;8.926;2023-01-28T17:51:43;98126.22;;;2.66;80.82
1401;BME280;46518;48.842;8.926;2023-01-28T17:54:11;98127.22;;;2.65;80.83
1401;BME280;46518;48.842;8.926;2023-01-28T17:56:39;98127.22;;;2.65;81.23
1401;BME280;46518;48.842;8.926;2023-01-28T17:59:09;98136.16;;;2.63;81.20
1401;BME280;46518;48.842;8.926;2023-01-28T18:01:37;98133.72;;;2.61;81.27
1401;BME280;46518;48.842;8.926;2023-01-28T18:04:05;98130.47;;;2.67;81.20
1401;BME280;46518;48.842;8.926;2023-01-28T18:06:34;98130.28;;;2.69;81.29
1401;BME280;46518;48.842;8.926;2023-01-28T18:09:02;98129.13;;;2.71;81.20
1401;BME280;46518;48.842;8.926;2023-01-28T18:11:31;98123.13;;;2.71;80.88
1401;BME280;46518;48.842;8.926;2023-01-28T18:13:59;98119.72;;;2.70;80.53
1401;BME280;46518;48.842;8.926;2023-01-28T18:16:29;98122.31;;;2.70;80.73
1401;BME280;46518;48.842;8.926;2023-01-28T18:18:57;98127.84;;;2.67;80.99
1401;BME280;46518;48.842;8.926;2023-01-28T18:21:30;98137.09;;;2.70;80.37
1401;BME280;46518;48.842;8.926;2023-01-28T18:24:17;98139.22;;;2.66;80.50
1401;BME280;46518;48.842;8.926;2023-01-28T18:26:45;98148.84;;;2.57;81.11
1401;BME280;46518;48.842;8.926;2023-01-28T18:29:13;98142.50;;;2.60;81.06
1401;BME280;46518;48.842;8.926;2023-01-28T18:31:47;98133.56;;;2.54;81.59
1401;BME280;46518;48.842;8.926;2023-01-28T18:34:15;98143.19;;;2.46;81.42
1401;BME280;46518;48.842;8.926;2023-01-28T18:36:44;98139.50;;;2.40;81.56